Terminal Aerodrome Forecast
Issued by NWS

Home | Current Version | Previous Version | Text Only | Print | Product List | Glossary On
Versions: 1 2 3 4 5 6 7 8 9 10 11 12 13
000
FTUS46 KSEW 222320
TAFOLM
TAF
KOLM 222320Z 2300/2324 29009KT P6SM FEW050 SCT060
     FM230600 21004KT P6SM SCT120 BKN250
     FM231000 00000KT 1/2SM FG OVC001
     FM231900 04004KT P6SM SCT100 BKN250=

USA.gov is the U.S. government's official web portal to all federal, state and local government web resources and services.